Terminal Aerodrome Forecast
Issued by NWS

Home | Current Version | Previous Version | Text Only | Print | Product List | Glossary On
Versions: 1 2 3 4 5 6 7 8 9 10 11 12 13 14 15 16 17 18 19 20 21 22 23 24 25 26 27 28 29 30 31 32 33 34 35 36 37 38
000
FTUS45 KGJT 282345
TAFRIL
TAF
KRIL 282345Z 2900/2924 VRB04KT P6SM VCSH SCT040 BKN060 BKN100
      TEMPO 2900/2902 VRB10G15KT -SHRA BKN040
     FM290300 VRB04KT P6SM BKN090
     FM291200 VRB04KT P6SM VCSH BKN050
     FM291900 27009KT P6SM -SHRA BKN040 BKN070=

USA.gov is the U.S. government's official web portal to all federal, state and local government web resources and services.